Back to Top

Language: 

My Weather Underground Personal Weather Station Historical Data with Graphs...

Delerius Weather Station Historical Data
Daily Summary for January 27, 2017 Units:  English    Metric   Both
« Previous Day
Next Day »
Daily Weekly Monthly Yearly Custom
  High: Low: Average:
Temperature: 36.6 °F 27.4 °F 31.9 °F
Dew Point: 35.4 °F 25.6 °F 30.6 °F
Humidity: 97 % 91 % 95 %
Wind Speed: 8.0 mph 0.0 mph 4.1 mph
Wind Gust: -999.0 mph - -
Wind:- - SE
Pressure: 29.97 in 29.76 in -
Precipitation: 0.03 in    
Historical Graphs
 
 
Tabular Data for January 27, 2017
Time Temperature Dew Point Pressure Wind Wind Speed Wind Gust Humidity Rainfall Rate (Hourly) solar Conditions
00:01 28.6 °F 26.3 °F 29.97 in SE 8.0 mph -999.0 mph 91 % 0.00 in 0 W/m2
00:06 28.6 °F 26.3 °F 29.97 in SE 8.0 mph -999.0 mph 91 % 0.00 in 0 W/m2
00:11 28.6 °F 26.3 °F 29.97 in SE 8.0 mph -999.0 mph 91 % 0.00 in 0 W/m2
00:16 28.6 °F 26.3 °F 29.97 in SE 8.0 mph -999.0 mph 91 % 0.00 in 0 W/m2
00:21 28.6 °F 26.3 °F 29.97 in SE 8.0 mph -999.0 mph 91 % 0.00 in 0 W/m2
00:26 28.4 °F 26.1 °F 29.97 in SE 8.0 mph -999.0 mph 91 % 0.00 in 0 W/m2
00:31 28.4 °F 26.1 °F 29.97 in SE 8.0 mph -999.0 mph 91 % 0.00 in 0 W/m2
00:36 28.4 °F 26.1 °F 29.97 in SE 8.0 mph -999.0 mph 91 % 0.00 in 0 W/m2
00:41 28.3 °F 26.0 °F 29.96 in SE 8.0 mph -999.0 mph 91 % 0.00 in 0 W/m2
00:46 28.3 °F 26.0 °F 29.96 in SE 8.0 mph -999.0 mph 91 % 0.00 in 0 W/m2
00:51 28.3 °F 26.0 °F 29.96 in SE 8.0 mph -999.0 mph 91 % 0.00 in 0 W/m2
00:56 28.2 °F 25.9 °F 29.95 in SE 7.0 mph -999.0 mph 91 % 0.00 in 0 W/m2
01:01 28.2 °F 25.9 °F 29.95 in SE 7.0 mph -999.0 mph 91 % 0.00 in 0 W/m2
01:06 28.2 °F 25.9 °F 29.95 in SE 7.0 mph -999.0 mph 91 % 0.00 in 0 W/m2
01:11 28.1 °F 26.1 °F 29.95 in SSE 4.0 mph -999.0 mph 92 % 0.00 in 0 W/m2
01:16 28.1 °F 26.1 °F 29.95 in SSE 4.0 mph -999.0 mph 92 % 0.00 in 0 W/m2
01:21 28.1 °F 26.1 °F 29.95 in SSE 4.0 mph -999.0 mph 92 % 0.00 in 0 W/m2
01:26 28.0 °F 26.0 °F 29.94 in SE 3.0 mph -999.0 mph 92 % 0.00 in 0 W/m2
01:31 28.0 °F 26.0 °F 29.94 in SE 3.0 mph -999.0 mph 92 % 0.00 in 0 W/m2
01:36 28.0 °F 26.0 °F 29.94 in SE 3.0 mph -999.0 mph 92 % 0.00 in 0 W/m2
01:41 27.9 °F 25.9 °F 29.93 in SE 3.0 mph -999.0 mph 92 % 0.00 in 0 W/m2
01:46 27.9 °F 25.9 °F 29.93 in SE 3.0 mph -999.0 mph 92 % 0.00 in 0 W/m2
01:51 27.9 °F 25.9 °F 29.93 in SE 3.0 mph -999.0 mph 92 % 0.00 in 0 W/m2
01:56 27.6 °F 25.6 °F 29.92 in East 2.0 mph -999.0 mph 92 % 0.00 in 0 W/m2
02:01 27.6 °F 25.6 °F 29.92 in East 2.0 mph -999.0 mph 92 % 0.00 in 0 W/m2
02:06 27.6 °F 25.6 °F 29.92 in East 2.0 mph -999.0 mph 92 % 0.00 in 0 W/m2
02:11 27.5 °F 25.7 °F 29.92 in ESE 3.0 mph -999.0 mph 93 % 0.00 in 0 W/m2
02:16 27.5 °F 25.7 °F 29.92 in ESE 3.0 mph -999.0 mph 93 % 0.00 in 0 W/m2
02:21 27.5 °F 25.7 °F 29.92 in ESE 3.0 mph -999.0 mph 93 % 0.00 in 0 W/m2
02:26 27.5 °F 25.7 °F 29.91 in ESE 2.0 mph -999.0 mph 93 % 0.00 in 0 W/m2
02:31 27.5 °F 25.7 °F 29.91 in ESE 2.0 mph -999.0 mph 93 % 0.00 in 0 W/m2
02:36 27.5 °F 25.7 °F 29.91 in ESE 2.0 mph -999.0 mph 93 % 0.00 in 0 W/m2
02:41 27.5 °F 25.7 °F 29.90 in ESE 1.0 mph -999.0 mph 93 % 0.00 in 0 W/m2
02:46 27.5 °F 25.7 °F 29.90 in ESE 1.0 mph -999.0 mph 93 % 0.00 in 0 W/m2
02:51 27.5 °F 25.7 °F 29.90 in ESE 1.0 mph -999.0 mph 93 % 0.00 in 0 W/m2
02:56 27.5 °F 25.7 °F 29.90 in ESE 1.0 mph -999.0 mph 93 % 0.00 in 0 W/m2
03:01 27.5 °F 25.7 °F 29.90 in ESE 1.0 mph -999.0 mph 93 % 0.00 in 0 W/m2
03:06 27.5 °F 25.7 °F 29.90 in ESE 1.0 mph -999.0 mph 93 % 0.00 in 0 W/m2
03:11 27.5 °F 25.7 °F 29.90 in ESE 3.0 mph -999.0 mph 93 % 0.00 in 0 W/m2
03:16 27.5 °F 25.7 °F 29.90 in ESE 3.0 mph -999.0 mph 93 % 0.00 in 0 W/m2
03:21 27.5 °F 25.7 °F 29.90 in ESE 3.0 mph -999.0 mph 93 % 0.00 in 0 W/m2
03:26 27.5 °F 26.0 °F 29.89 in ESE 4.0 mph -999.0 mph 94 % 0.00 in 0 W/m2
03:31 27.5 °F 26.0 °F 29.89 in ESE 4.0 mph -999.0 mph 94 % 0.00 in 0 W/m2
03:36 27.5 °F 26.0 °F 29.89 in ESE 4.0 mph -999.0 mph 94 % 0.00 in 0 W/m2
03:41 27.5 °F 26.0 °F 29.89 in ESE 5.0 mph -999.0 mph 94 % 0.00 in 0 W/m2
03:46 27.5 °F 26.0 °F 29.89 in ESE 5.0 mph -999.0 mph 94 % 0.00 in 0 W/m2
03:51 27.5 °F 26.0 °F 29.89 in ESE 5.0 mph -999.0 mph 94 % 0.00 in 0 W/m2
03:56 27.6 °F 26.1 °F 29.89 in ESE 5.0 mph -999.0 mph 94 % 0.00 in 0 W/m2
04:01 27.6 °F 26.1 °F 29.89 in ESE 5.0 mph -999.0 mph 94 % 0.00 in 0 W/m2
04:06 27.6 °F 26.1 °F 29.89 in ESE 5.0 mph -999.0 mph 94 % 0.00 in 0 W/m2
04:11 27.6 °F 26.4 °F 29.89 in ESE 4.0 mph -999.0 mph 95 % 0.00 in 0 W/m2
04:16 27.6 °F 26.4 °F 29.89 in ESE 4.0 mph -999.0 mph 95 % 0.00 in 0 W/m2
04:21 27.6 °F 26.4 °F 29.89 in ESE 4.0 mph -999.0 mph 95 % 0.00 in 0 W/m2
04:26 27.7 °F 26.5 °F 29.89 in ESE 4.0 mph -999.0 mph 95 % 0.00 in 0 W/m2
04:31 27.7 °F 26.5 °F 29.89 in ESE 4.0 mph -999.0 mph 95 % 0.00 in 0 W/m2
04:36 27.7 °F 26.5 °F 29.89 in ESE 4.0 mph -999.0 mph 95 % 0.00 in 0 W/m2
04:41 27.6 °F 26.4 °F 29.88 in SE 4.0 mph -999.0 mph 95 % 0.00 in 0 W/m2
04:46 27.6 °F 26.4 °F 29.88 in SE 4.0 mph -999.0 mph 95 % 0.00 in 0 W/m2
04:51 27.6 °F 26.4 °F 29.88 in SE 4.0 mph -999.0 mph 95 % 0.00 in 0 W/m2
04:56 27.5 °F 26.3 °F 29.88 in SE 2.0 mph -999.0 mph 95 % 0.00 in 0 W/m2
05:01 27.5 °F 26.3 °F 29.88 in SE 2.0 mph -999.0 mph 95 % 0.00 in 0 W/m2
05:06 27.5 °F 26.3 °F 29.88 in SE 2.0 mph -999.0 mph 95 % 0.00 in 0 W/m2
05:11 27.5 °F 26.3 °F 29.87 in SE 2.0 mph -999.0 mph 95 % 0.00 in 0 W/m2
05:16 27.5 °F 26.3 °F 29.87 in SE 2.0 mph -999.0 mph 95 % 0.00 in 0 W/m2
05:21 27.5 °F 26.3 °F 29.87 in SE 2.0 mph -999.0 mph 95 % 0.00 in 0 W/m2
05:26 27.5 °F 26.3 °F 29.86 in SE 4.0 mph -999.0 mph 95 % 0.00 in 0 W/m2
05:31 27.5 °F 26.3 °F 29.86 in SE 4.0 mph -999.0 mph 95 % 0.00 in 0 W/m2
05:36 27.5 °F 26.3 °F 29.86 in SE 4.0 mph -999.0 mph 95 % 0.00 in 0 W/m2
05:41 27.4 °F 26.2 °F 29.85 in SE 3.0 mph -999.0 mph 95 % 0.00 in 0 W/m2
05:46 27.4 °F 26.2 °F 29.85 in SE 3.0 mph -999.0 mph 95 % 0.00 in 0 W/m2
05:51 27.4 °F 26.2 °F 29.85 in SE 3.0 mph -999.0 mph 95 % 0.00 in 0 W/m2
05:56 27.5 °F 26.5 °F 29.85 in South 2.0 mph -999.0 mph 96 % 0.00 in 0 W/m2
06:01 27.5 °F 26.5 °F 29.85 in South 2.0 mph -999.0 mph 96 % 0.00 in 0 W/m2
06:06 27.5 °F 26.5 °F 29.85 in South 2.0 mph -999.0 mph 96 % 0.00 in 0 W/m2
06:11 27.7 °F 26.7 °F 29.85 in South 1.0 mph -999.0 mph 96 % 0.00 in 0 W/m2
06:16 27.7 °F 26.7 °F 29.85 in South 1.0 mph -999.0 mph 96 % 0.00 in 0 W/m2
06:21 27.7 °F 26.7 °F 29.85 in South 1.0 mph -999.0 mph 96 % 0.00 in 0 W/m2
06:26 27.8 °F 26.8 °F 29.85 in ESE 1.0 mph -999.0 mph 96 % 0.00 in 0 W/m2
06:31 27.8 °F 26.8 °F 29.85 in ESE 1.0 mph -999.0 mph 96 % 0.00 in 0 W/m2
06:36 27.8 °F 26.8 °F 29.85 in ESE 1.0 mph -999.0 mph 96 % 0.00 in 0 W/m2
06:41 28.0 °F 27.0 °F 29.85 in SE 2.0 mph -999.0 mph 96 % 0.00 in 0 W/m2
06:46 28.0 °F 27.0 °F 29.85 in SE 2.0 mph -999.0 mph 96 % 0.00 in 0 W/m2
06:51 28.0 °F 27.0 °F 29.85 in SE 2.0 mph -999.0 mph 96 % 0.00 in 0 W/m2
06:56 28.2 °F 27.2 °F 29.85 in SSE 3.0 mph -999.0 mph 96 % 0.00 in 0 W/m2
07:01 28.2 °F 27.2 °F 29.85 in SSE 3.0 mph -999.0 mph 96 % 0.00 in 0 W/m2
07:06 28.2 °F 27.2 °F 29.85 in SSE 3.0 mph -999.0 mph 96 % 0.00 in 0 W/m2
07:11 28.2 °F 27.2 °F 29.84 in SSE 1.0 mph -999.0 mph 96 % 0.00 in 0 W/m2
07:16 28.2 °F 27.2 °F 29.84 in SSE 1.0 mph -999.0 mph 96 % 0.00 in 0 W/m2
07:21 28.2 °F 27.2 °F 29.84 in SSE 1.0 mph -999.0 mph 96 % 0.00 in 0 W/m2
07:26 28.4 °F 27.4 °F 29.84 in SSE 1.0 mph -999.0 mph 96 % 0.00 in 0 W/m2
07:31 28.4 °F 27.4 °F 29.84 in SSE 1.0 mph -999.0 mph 96 % 0.00 in 0 W/m2
07:36 28.4 °F 27.4 °F 29.84 in SSE 1.0 mph -999.0 mph 96 % 0.00 in 0 W/m2
07:41 28.4 °F 27.4 °F 29.83 in SE 3.0 mph -999.0 mph 96 % 0.00 in 0 W/m2
07:46 28.4 °F 27.4 °F 29.83 in SE 3.0 mph -999.0 mph 96 % 0.00 in 0 W/m2
07:51 28.4 °F 27.4 °F 29.83 in SE 3.0 mph -999.0 mph 96 % 0.00 in 0 W/m2
07:56 28.3 °F 27.3 °F 29.83 in SE 4.0 mph -999.0 mph 96 % 0.00 in 0 W/m2
08:01 28.3 °F 27.3 °F 29.83 in SE 4.0 mph -999.0 mph 96 % 0.00 in 0 W/m2
08:06 28.3 °F 27.3 °F 29.83 in SE 4.0 mph -999.0 mph 96 % 0.00 in 0 W/m2
08:11 28.4 °F 27.4 °F 29.83 in SSE 6.0 mph -999.0 mph 96 % 0.00 in 0 W/m2
08:16 28.4 °F 27.4 °F 29.83 in SSE 6.0 mph -999.0 mph 96 % 0.00 in 0 W/m2
08:21 28.4 °F 27.4 °F 29.83 in SSE 6.0 mph -999.0 mph 96 % 0.00 in 0 W/m2
08:26 28.3 °F 27.3 °F 29.82 in SSE 5.0 mph -999.0 mph 96 % 0.00 in 3 W/m2
08:31 28.3 °F 27.3 °F 29.82 in SSE 5.0 mph -999.0 mph 96 % 0.00 in 3 W/m2
08:36 28.3 °F 27.3 °F 29.82 in SSE 5.0 mph -999.0 mph 96 % 0.00 in 3 W/m2
08:41 28.4 °F 27.7 °F 29.82 in South 3.0 mph -999.0 mph 97 % 0.00 in 9 W/m2
08:46 28.4 °F 27.7 °F 29.82 in South 3.0 mph -999.0 mph 97 % 0.00 in 9 W/m2
08:51 28.4 °F 27.7 °F 29.82 in South 3.0 mph -999.0 mph 97 % 0.00 in 9 W/m2
08:56 28.6 °F 27.9 °F 29.82 in South 2.0 mph -999.0 mph 97 % 0.00 in 16 W/m2
09:01 28.6 °F 27.9 °F 29.82 in South 2.0 mph -999.0 mph 97 % 0.00 in 16 W/m2
09:06 28.6 °F 27.9 °F 29.82 in South 2.0 mph -999.0 mph 97 % 0.00 in 16 W/m2
09:11 28.8 °F 28.1 °F 29.82 in South 4.0 mph -999.0 mph 97 % 0.00 in 30 W/m2
09:16 28.8 °F 28.1 °F 29.82 in South 4.0 mph -999.0 mph 97 % 0.00 in 30 W/m2
09:21 28.8 °F 28.1 °F 29.82 in South 4.0 mph -999.0 mph 97 % 0.00 in 30 W/m2
09:26 28.8 °F 28.1 °F 29.81 in ESE 3.0 mph -999.0 mph 97 % 0.00 in 30 W/m2
09:31 28.8 °F 28.1 °F 29.81 in ESE 3.0 mph -999.0 mph 97 % 0.00 in 30 W/m2
09:36 28.8 °F 28.1 °F 29.81 in ESE 3.0 mph -999.0 mph 97 % 0.00 in 30 W/m2
09:41 29.0 °F 28.3 °F 29.82 in SSE 4.0 mph -999.0 mph 97 % 0.00 in 30 W/m2
09:46 29.0 °F 28.3 °F 29.82 in SSE 4.0 mph -999.0 mph 97 % 0.00 in 30 W/m2
09:51 29.0 °F 28.3 °F 29.82 in SSE 4.0 mph -999.0 mph 97 % 0.00 in 30 W/m2
09:56 29.1 °F 28.4 °F 29.81 in SSW 1.0 mph -999.0 mph 97 % 0.00 in 33 W/m2
10:01 29.1 °F 28.4 °F 29.81 in SSW 1.0 mph -999.0 mph 97 % 0.00 in 33 W/m2
10:06 29.1 °F 28.4 °F 29.81 in SSW 1.0 mph -999.0 mph 97 % 0.00 in 33 W/m2
10:11 29.3 °F 28.6 °F 29.81 in SE 3.0 mph -999.0 mph 97 % 0.00 in 43 W/m2
10:16 29.3 °F 28.6 °F 29.81 in SE 3.0 mph -999.0 mph 97 % 0.00 in 43 W/m2
10:21 29.3 °F 28.6 °F 29.81 in SE 3.0 mph -999.0 mph 97 % 0.00 in 43 W/m2
10:26 29.6 °F 28.9 °F 29.81 in SE 3.0 mph -999.0 mph 97 % 0.00 in 46 W/m2
10:31 29.6 °F 28.9 °F 29.81 in SE 3.0 mph -999.0 mph 97 % 0.00 in 46 W/m2
10:36 29.6 °F 28.9 °F 29.81 in SE 3.0 mph -999.0 mph 97 % 0.00 in 46 W/m2
10:41 29.9 °F 29.2 °F 29.81 in SE 4.0 mph -999.0 mph 97 % 0.00 in 48 W/m2
10:46 29.9 °F 29.2 °F 29.81 in SE 4.0 mph -999.0 mph 97 % 0.00 in 48 W/m2
10:51 29.9 °F 29.2 °F 29.81 in SE 4.0 mph -999.0 mph 97 % 0.00 in 48 W/m2
10:56 30.1 °F 29.4 °F 29.81 in SE 5.0 mph -999.0 mph 97 % 0.00 in 49 W/m2
11:01 30.1 °F 29.4 °F 29.81 in SE 5.0 mph -999.0 mph 97 % 0.00 in 49 W/m2
11:06 30.1 °F 29.4 °F 29.81 in SE 5.0 mph -999.0 mph 97 % 0.00 in 49 W/m2
11:11 30.4 °F 29.7 °F 29.81 in SE 6.0 mph -999.0 mph 97 % 0.00 in 56 W/m2
11:16 30.4 °F 29.7 °F 29.81 in SE 6.0 mph -999.0 mph 97 % 0.00 in 56 W/m2
11:21 30.4 °F 29.7 °F 29.81 in SE 6.0 mph -999.0 mph 97 % 0.00 in 56 W/m2
11:26 30.8 °F 30.0 °F 29.81 in SSE 5.0 mph -999.0 mph 97 % 0.00 in 58 W/m2
11:31 30.8 °F 30.0 °F 29.81 in SSE 5.0 mph -999.0 mph 97 % 0.00 in 58 W/m2
11:36 30.8 °F 30.0 °F 29.81 in SSE 5.0 mph -999.0 mph 97 % 0.00 in 58 W/m2
11:41 31.2 °F 30.4 °F 29.80 in South 5.0 mph -999.0 mph 97 % 0.00 in 67 W/m2
11:46 31.2 °F 30.4 °F 29.80 in South 5.0 mph -999.0 mph 97 % 0.00 in 67 W/m2
11:51 31.2 °F 30.4 °F 29.80 in South 5.0 mph -999.0 mph 97 % 0.00 in 67 W/m2
11:56 31.7 °F 30.9 °F 29.79 in SSE 3.0 mph -999.0 mph 97 % 0.00 in 66 W/m2
12:01 31.7 °F 30.9 °F 29.79 in SSE 3.0 mph -999.0 mph 97 % 0.00 in 66 W/m2
12:06 31.7 °F 30.9 °F 29.79 in SSE 3.0 mph -999.0 mph 97 % 0.00 in 66 W/m2
12:11 32.1 °F 31.3 °F 29.79 in South 2.0 mph -999.0 mph 97 % 0.00 in 63 W/m2
12:16 32.1 °F 31.3 °F 29.79 in South 2.0 mph -999.0 mph 97 % 0.00 in 63 W/m2
12:21 32.1 °F 31.3 °F 29.79 in South 2.0 mph -999.0 mph 97 % 0.00 in 63 W/m2
12:26 32.4 °F 31.6 °F 29.79 in South 2.0 mph -999.0 mph 97 % 0.00 in 49 W/m2
12:31 32.4 °F 31.6 °F 29.79 in South 2.0 mph -999.0 mph 97 % 0.00 in 49 W/m2
12:36 32.4 °F 31.6 °F 29.79 in South 2.0 mph -999.0 mph 97 % 0.00 in 49 W/m2
12:41 32.9 °F 32.1 °F 29.79 in South 1.0 mph -999.0 mph 97 % 0.00 in 61 W/m2
12:46 32.9 °F 32.1 °F 29.79 in South 1.0 mph -999.0 mph 97 % 0.00 in 61 W/m2
12:51 32.9 °F 32.1 °F 29.79 in South 1.0 mph -999.0 mph 97 % 0.00 in 61 W/m2
12:56 33.4 °F 32.6 °F 29.79 in SSE 2.0 mph -999.0 mph 97 % 0.00 in 67 W/m2
13:01 33.4 °F 32.6 °F 29.79 in SSE 2.0 mph -999.0 mph 97 % 0.00 in 67 W/m2
13:06 33.4 °F 32.6 °F 29.79 in SSE 2.0 mph -999.0 mph 97 % 0.00 in 67 W/m2
13:11 34.1 °F 33.3 °F 29.79 in SSE 6.0 mph -999.0 mph 97 % 0.00 in 65 W/m2
13:16 34.1 °F 33.3 °F 29.79 in SSE 6.0 mph -999.0 mph 97 % 0.00 in 65 W/m2
13:21 34.1 °F 33.3 °F 29.79 in SSE 6.0 mph -999.0 mph 97 % 0.00 in 65 W/m2
13:26 34.5 °F 33.7 °F 29.78 in SE 5.0 mph -999.0 mph 97 % 0.00 in 50 W/m2
13:31 34.5 °F 33.7 °F 29.78 in SE 5.0 mph -999.0 mph 97 % 0.00 in 50 W/m2
13:36 34.5 °F 33.7 °F 29.78 in SE 5.0 mph -999.0 mph 97 % 0.00 in 50 W/m2
13:41 34.7 °F 33.7 °F 29.77 in South 7.0 mph -999.0 mph 96 % 0.00 in 59 W/m2
13:46 34.7 °F 33.7 °F 29.77 in South 7.0 mph -999.0 mph 96 % 0.00 in 59 W/m2
13:51 34.7 °F 33.7 °F 29.77 in South 7.0 mph -999.0 mph 96 % 0.00 in 59 W/m2
13:56 34.8 °F 33.5 °F 29.77 in South 6.0 mph -999.0 mph 95 % 0.00 in 55 W/m2
14:01 34.8 °F 33.5 °F 29.77 in South 6.0 mph -999.0 mph 95 % 0.00 in 55 W/m2
14:06 34.8 °F 33.5 °F 29.77 in South 6.0 mph -999.0 mph 95 % 0.00 in 55 W/m2
14:11 35.0 °F 33.7 °F 29.77 in South 7.0 mph -999.0 mph 95 % 0.00 in 67 W/m2
14:16 35.0 °F 33.7 °F 29.77 in South 7.0 mph -999.0 mph 95 % 0.00 in 67 W/m2
14:21 35.0 °F 33.7 °F 29.77 in South 7.0 mph -999.0 mph 95 % 0.00 in 67 W/m2
14:26 35.3 °F 33.7 °F 29.77 in SSE 6.0 mph -999.0 mph 94 % 0.00 in 72 W/m2
14:31 35.3 °F 33.7 °F 29.77 in SSE 6.0 mph -999.0 mph 94 % 0.00 in 72 W/m2
14:36 35.3 °F 33.7 °F 29.77 in SSE 6.0 mph -999.0 mph 94 % 0.00 in 72 W/m2
14:41 35.6 °F 34.0 °F 29.78 in SSE 5.0 mph -999.0 mph 94 % 0.00 in 51 W/m2
14:46 35.6 °F 34.0 °F 29.78 in SSE 5.0 mph -999.0 mph 94 % 0.00 in 51 W/m2
14:51 35.6 °F 34.0 °F 29.78 in SSE 5.0 mph -999.0 mph 94 % 0.00 in 51 W/m2
14:56 35.8 °F 34.0 °F 29.77 in SSE 4.0 mph -999.0 mph 93 % 0.00 in 32 W/m2
15:01 35.8 °F 34.0 °F 29.77 in SSE 4.0 mph -999.0 mph 93 % 0.00 in 32 W/m2
15:06 35.8 °F 34.0 °F 29.77 in SSE 4.0 mph -999.0 mph 93 % 0.00 in 32 W/m2
15:11 35.9 °F 34.1 °F 29.78 in SSE 5.0 mph -999.0 mph 93 % 0.00 in 39 W/m2
15:16 35.9 °F 34.1 °F 29.78 in SSE 5.0 mph -999.0 mph 93 % 0.00 in 39 W/m2
15:21 35.9 °F 34.1 °F 29.78 in SSE 5.0 mph -999.0 mph 93 % 0.00 in 39 W/m2
15:26 36.0 °F 34.2 °F 29.78 in SE 4.0 mph -999.0 mph 93 % 0.00 in 26 W/m2
15:31 36.0 °F 34.2 °F 29.78 in SE 4.0 mph -999.0 mph 93 % 0.00 in 26 W/m2
15:36 36.0 °F 34.2 °F 29.78 in SE 4.0 mph -999.0 mph 93 % 0.00 in 26 W/m2
15:41 36.2 °F 34.4 °F 29.79 in ESE 4.0 mph -999.0 mph 93 % 0.00 in 16 W/m2
15:46 36.2 °F 34.4 °F 29.79 in ESE 4.0 mph -999.0 mph 93 % 0.00 in 16 W/m2
15:51 36.2 °F 34.4 °F 29.79 in ESE 4.0 mph -999.0 mph 93 % 0.00 in 16 W/m2
15:56 36.3 °F 34.5 °F 29.78 in ESE 5.0 mph -999.0 mph 93 % 0.00 in 11 W/m2
16:01 36.3 °F 34.5 °F 29.78 in ESE 5.0 mph -999.0 mph 93 % 0.00 in 11 W/m2
16:06 36.3 °F 34.5 °F 29.78 in ESE 5.0 mph -999.0 mph 93 % 0.00 in 11 W/m2
16:11 36.2 °F 34.4 °F 29.79 in ESE 3.0 mph -999.0 mph 93 % 0.00 in 8 W/m2
16:16 36.2 °F 34.4 °F 29.79 in ESE 3.0 mph -999.0 mph 93 % 0.00 in 8 W/m2
16:21 36.2 °F 34.4 °F 29.79 in ESE 3.0 mph -999.0 mph 93 % 0.00 in 8 W/m2
16:26 36.2 °F 34.4 °F 29.79 in ESE 5.0 mph -999.0 mph 93 % 0.00 in 5 W/m2
16:31 36.2 °F 34.4 °F 29.79 in ESE 5.0 mph -999.0 mph 93 % 0.00 in 5 W/m2
16:36 36.2 °F 34.4 °F 29.79 in ESE 5.0 mph -999.0 mph 93 % 0.00 in 5 W/m2
16:41 36.2 °F 34.6 °F 29.79 in ESE 5.0 mph -999.0 mph 94 % 0.00 in 0 W/m2
16:46 36.2 °F 34.6 °F 29.79 in ESE 5.0 mph -999.0 mph 94 % 0.00 in 0 W/m2
16:51 36.2 °F 34.6 °F 29.79 in ESE 5.0 mph -999.0 mph 94 % 0.00 in 0 W/m2
16:56 36.3 °F 34.7 °F 29.79 in ESE 5.0 mph -999.0 mph 94 % 0.00 in 0 W/m2
17:01 36.3 °F 34.7 °F 29.79 in ESE 5.0 mph -999.0 mph 94 % 0.00 in 0 W/m2
17:06 36.3 °F 34.7 °F 29.79 in ESE 5.0 mph -999.0 mph 94 % 0.00 in 0 W/m2
17:11 36.4 °F 34.8 °F 29.78 in SE 6.0 mph -999.0 mph 94 % 0.00 in 0 W/m2
17:16 36.4 °F 34.8 °F 29.78 in SE 6.0 mph -999.0 mph 94 % 0.00 in 0 W/m2
17:21 36.4 °F 34.8 °F 29.78 in SE 6.0 mph -999.0 mph 94 % 0.00 in 0 W/m2
17:26 36.5 °F 34.9 °F 29.79 in SE 6.0 mph -999.0 mph 94 % 0.00 in 0 W/m2
17:31 36.5 °F 34.9 °F 29.79 in SE 6.0 mph -999.0 mph 94 % 0.00 in 0 W/m2
17:36 36.5 °F 34.9 °F 29.79 in SE 6.0 mph -999.0 mph 94 % 0.00 in 0 W/m2
17:41 36.6 °F 35.0 °F 29.80 in SE 8.0 mph -999.0 mph 94 % 0.00 in 0 W/m2
17:46 36.6 °F 35.0 °F 29.80 in SE 8.0 mph -999.0 mph 94 % 0.00 in 0 W/m2
17:51 36.6 °F 35.0 °F 29.80 in SE 8.0 mph -999.0 mph 94 % 0.00 in 0 W/m2
17:56 36.5 °F 34.7 °F 29.81 in SE 7.0 mph -999.0 mph 93 % 0.00 in 0 W/m2
18:01 36.5 °F 34.7 °F 29.81 in SE 7.0 mph -999.0 mph 93 % 0.00 in 0 W/m2
18:06 36.5 °F 34.7 °F 29.81 in SE 7.0 mph -999.0 mph 93 % 0.00 in 0 W/m2
18:11 36.3 °F 34.5 °F 29.80 in SE 6.0 mph -999.0 mph 93 % 0.00 in 0 W/m2
18:16 36.3 °F 34.5 °F 29.80 in SE 6.0 mph -999.0 mph 93 % 0.00 in 0 W/m2
18:21 36.3 °F 34.5 °F 29.80 in SE 6.0 mph -999.0 mph 93 % 0.00 in 0 W/m2
18:26 36.1 °F 34.3 °F 29.80 in SE 6.0 mph -999.0 mph 93 % 0.00 in 0 W/m2
18:31 36.1 °F 34.3 °F 29.80 in SE 6.0 mph -999.0 mph 93 % 0.00 in 0 W/m2
18:36 36.1 °F 34.3 °F 29.80 in SE 6.0 mph -999.0 mph 93 % 0.00 in 0 W/m2
18:41 35.9 °F 34.1 °F 29.80 in SE 6.0 mph -999.0 mph 93 % 0.00 in 0 W/m2
18:46 35.9 °F 34.1 °F 29.80 in SE 6.0 mph -999.0 mph 93 % 0.00 in 0 W/m2
18:51 35.9 °F 34.1 °F 29.80 in SE 6.0 mph -999.0 mph 93 % 0.00 in 0 W/m2
18:56 35.9 °F 34.3 °F 29.80 in SE 5.0 mph -999.0 mph 94 % 0.00 in 0 W/m2
19:01 35.9 °F 34.3 °F 29.80 in SE 5.0 mph -999.0 mph 94 % 0.00 in 0 W/m2
19:06 35.9 °F 34.3 °F 29.80 in SE 5.0 mph -999.0 mph 94 % 0.00 in 0 W/m2
19:11 35.8 °F 34.2 °F 29.81 in SE 6.0 mph -999.0 mph 94 % 0.00 in 0 W/m2
19:16 35.8 °F 34.2 °F 29.81 in SE 6.0 mph -999.0 mph 94 % 0.00 in 0 W/m2
19:21 35.8 °F 34.2 °F 29.81 in SE 6.0 mph -999.0 mph 94 % 0.00 in 0 W/m2
19:26 35.8 °F 34.2 °F 29.80 in SE 7.0 mph -999.0 mph 94 % 0.00 in 0 W/m2
19:31 35.8 °F 34.2 °F 29.80 in SE 7.0 mph -999.0 mph 94 % 0.00 in 0 W/m2
19:36 35.8 °F 34.2 °F 29.80 in SE 7.0 mph -999.0 mph 94 % 0.00 in 0 W/m2
19:41 35.7 °F 34.1 °F 29.80 in SE 5.0 mph -999.0 mph 94 % 0.00 in 0 W/m2
19:46 35.7 °F 34.1 °F 29.80 in SE 5.0 mph -999.0 mph 94 % 0.00 in 0 W/m2
19:51 35.7 °F 34.1 °F 29.80 in SE 5.0 mph -999.0 mph 94 % 0.00 in 0 W/m2
19:56 35.7 °F 34.4 °F 29.80 in SE 6.0 mph -999.0 mph 95 % 0.00 in 0 W/m2
20:01 35.7 °F 34.4 °F 29.80 in SE 6.0 mph -999.0 mph 95 % 0.00 in 0 W/m2
20:06 35.7 °F 34.4 °F 29.80 in SE 6.0 mph -999.0 mph 95 % 0.00 in 0 W/m2
20:11 35.7 °F 34.4 °F 29.80 in SE 6.0 mph -999.0 mph 95 % 0.00 in 0 W/m2
20:16 35.7 °F 34.4 °F 29.80 in SE 6.0 mph -999.0 mph 95 % 0.00 in 0 W/m2
20:21 35.7 °F 34.4 °F 29.80 in SE 6.0 mph -999.0 mph 95 % 0.00 in 0 W/m2
20:26 35.7 °F 34.4 °F 29.79 in SE 5.0 mph -999.0 mph 95 % 0.00 in 0 W/m2
20:31 35.7 °F 34.4 °F 29.79 in SE 5.0 mph -999.0 mph 95 % 0.00 in 0 W/m2
20:36 35.7 °F 34.4 °F 29.79 in SE 5.0 mph -999.0 mph 95 % 0.00 in 0 W/m2
20:41 35.7 °F 34.4 °F 29.79 in SE 4.0 mph -999.0 mph 95 % 0.01 in 0 W/m2
20:46 35.7 °F 34.4 °F 29.79 in SE 4.0 mph -999.0 mph 95 % 0.01 in 0 W/m2
20:51 35.7 °F 34.4 °F 29.79 in SE 4.0 mph -999.0 mph 95 % 0.01 in 0 W/m2
20:56 35.7 °F 34.7 °F 29.79 in SE 4.0 mph -999.0 mph 96 % 0.01 in 0 W/m2
21:01 35.7 °F 34.7 °F 29.79 in SE 4.0 mph -999.0 mph 96 % 0.01 in 0 W/m2
21:06 35.7 °F 34.7 °F 29.79 in SE 4.0 mph -999.0 mph 96 % 0.01 in 0 W/m2
21:11 35.7 °F 34.7 °F 29.79 in ESE 3.0 mph -999.0 mph 96 % 0.01 in 0 W/m2
21:16 35.7 °F 34.7 °F 29.79 in ESE 3.0 mph -999.0 mph 96 % 0.01 in 0 W/m2
21:21 35.7 °F 34.7 °F 29.79 in ESE 3.0 mph -999.0 mph 96 % 0.01 in 0 W/m2
21:26 35.7 °F 34.7 °F 29.79 in SE 3.0 mph -999.0 mph 96 % 0.02 in 0 W/m2
21:31 35.7 °F 34.7 °F 29.79 in SE 3.0 mph -999.0 mph 96 % 0.02 in 0 W/m2
21:36 35.7 °F 34.7 °F 29.79 in SE 3.0 mph -999.0 mph 96 % 0.02 in 0 W/m2
21:41 35.8 °F 34.8 °F 29.78 in SE 4.0 mph -999.0 mph 96 % 0.02 in 0 W/m2
21:46 35.8 °F 34.8 °F 29.78 in SE 4.0 mph -999.0 mph 96 % 0.02 in 0 W/m2
21:51 35.8 °F 34.8 °F 29.78 in SE 4.0 mph -999.0 mph 96 % 0.02 in 0 W/m2
21:56 35.8 °F 34.8 °F 29.78 in SE 5.0 mph -999.0 mph 96 % 0.02 in 0 W/m2
22:01 35.8 °F 34.8 °F 29.78 in SE 5.0 mph -999.0 mph 96 % 0.02 in 0 W/m2
22:06 35.8 °F 34.8 °F 29.78 in SE 5.0 mph -999.0 mph 96 % 0.02 in 0 W/m2
22:11 35.8 °F 34.8 °F 29.78 in SE 4.0 mph -999.0 mph 96 % 0.02 in 0 W/m2
22:16 35.8 °F 34.8 °F 29.78 in SE 4.0 mph -999.0 mph 96 % 0.02 in 0 W/m2
22:21 35.8 °F 34.8 °F 29.78 in SE 4.0 mph -999.0 mph 96 % 0.02 in 0 W/m2
22:26 35.8 °F 34.8 °F 29.77 in SE 4.0 mph -999.0 mph 96 % 0.01 in 0 W/m2
22:31 35.8 °F 34.8 °F 29.77 in SE 4.0 mph -999.0 mph 96 % 0.01 in 0 W/m2
22:36 35.8 °F 34.8 °F 29.77 in SE 4.0 mph -999.0 mph 96 % 0.01 in 0 W/m2
22:41 35.9 °F 35.1 °F 29.77 in SE 4.0 mph -999.0 mph 97 % 0.00 in 0 W/m2
22:46 35.9 °F 35.1 °F 29.77 in SE 4.0 mph -999.0 mph 97 % 0.00 in 0 W/m2
22:51 35.9 °F 35.1 °F 29.77 in SE 4.0 mph -999.0 mph 97 % 0.00 in 0 W/m2
22:56 36.0 °F 35.2 °F 29.77 in SE 2.0 mph -999.0 mph 97 % 0.00 in 0 W/m2
23:01 36.0 °F 35.2 °F 29.77 in SE 2.0 mph -999.0 mph 97 % 0.00 in 0 W/m2
23:06 36.0 °F 35.2 °F 29.77 in SE 2.0 mph -999.0 mph 97 % 0.00 in 0 W/m2
23:11 36.1 °F 35.3 °F 29.77 in ESE 2.0 mph -999.0 mph 97 % 0.01 in 0 W/m2
23:16 36.1 °F 35.3 °F 29.77 in ESE 2.0 mph -999.0 mph 97 % 0.01 in 0 W/m2
23:21 36.1 °F 35.3 °F 29.77 in ESE 2.0 mph -999.0 mph 97 % 0.01 in 0 W/m2
23:26 36.1 °F 35.3 °F 29.77 in ESE 1.0 mph -999.0 mph 97 % 0.01 in 0 W/m2
23:31 36.1 °F 35.3 °F 29.77 in ESE 1.0 mph -999.0 mph 97 % 0.01 in 0 W/m2
23:36 36.1 °F 35.3 °F 29.77 in ESE 1.0 mph -999.0 mph 97 % 0.01 in 0 W/m2
23:41 36.1 °F 35.3 °F 29.76 in East 1.0 mph -999.0 mph 97 % 0.01 in 0 W/m2
23:46 36.1 °F 35.3 °F 29.76 in East 1.0 mph -999.0 mph 97 % 0.01 in 0 W/m2
23:51 36.1 °F 35.3 °F 29.76 in East 1.0 mph -999.0 mph 97 % 0.01 in 0 W/m2
23:56 36.2 °F 35.4 °F 29.76 in Calm   -999.0 mph 97 % 0.01 in 0 W/m2
Delerius-Weather
Compliments of Weather Underground - 2.25 mb

Data updates at regular intervals.